aviador You're here:

OMRK Decoded Metar

RAS AL KHAIMAH in UNITED ARAB EMIRATES
Report Time2017-09-23 00:00:00
UTC Time2017-09-23 00:21:27
Flight Rules vfr VFR
Wind110° at 03 kt
W.Decomp.*RWY 16: 1.9 kt HW 2.3 kt LCW
W.Rank110° ranks 27
Current wind is below 110° avg. (7.2)
Visibility9999 m
Phenomena:N/A
Clouds:N/A
Expected CloudBase > 11,600 ft AGL from Temp-Dew spread
CeilingNone
Temp25°C (ISA +10)
Dew Point-4°C (14% RH)
AAT21.4°C
QNH1005 hPa
Density Alt1,621 ft
Elevation102 ft
Report Wrong Elevation
Raw Report
METAR OMRK 230000Z 11003KT 060V120 CAVOK 25/M04 Q1005 A2970=

Extra information for OMRK:More info

Metar Taf Metar & Taf Last 4 Metars F.Rules Stats Wind Profile Meteogram Temp Stats Airport Information Weather charts Add Link Nearby VenuesMetar ALERT Operation Metar Decoded Social comments